sensor_id;sensor_type;location;lat;lon;timestamp;pressure;altitude;pressure_sealevel;temperature
34310;BMP280;61664;48.112;11.662;2023-09-30T00:02:03;96306.25;;;21.36
34310;BMP280;61664;48.112;11.662;2023-09-30T00:04:30;96299.41;;;21.29
34310;BMP280;61664;48.112;11.662;2023-09-30T00:06:57;96300.88;;;21.30
34310;BMP280;61664;48.112;11.662;2023-09-30T00:09:24;96296.47;;;21.27
34310;BMP280;61664;48.112;11.662;2023-09-30T00:11:51;96288.63;;;21.18
34310;BMP280;61664;48.112;11.662;2023-09-30T00:14:18;96289.88;;;21.17
34310;BMP280;61664;48.112;11.662;2023-09-30T00:16:45;96311.34;;;21.21
34310;BMP280;61664;48.112;11.662;2023-09-30T00:19:12;96298.56;;;21.16
34310;BMP280;61664;48.112;11.662;2023-09-30T00:21:41;96312.44;;;21.12
34310;BMP280;61664;48.112;11.662;2023-09-30T00:24:08;96305.56;;;21.05
34310;BMP280;61664;48.112;11.662;2023-09-30T00:26:36;96319.41;;;21.08
34310;BMP280;61664;48.112;11.662;2023-09-30T00:29:03;96322.78;;;21.14
34310;BMP280;61664;48.112;11.662;2023-09-30T00:31:32;96322.28;;;21.15
34310;BMP280;61664;48.112;11.662;2023-09-30T00:34:02;96317.78;;;21.18
34310;BMP280;61664;48.112;11.662;2023-09-30T00:36:29;96321.50;;;21.20
34310;BMP280;61664;48.112;11.662;2023-09-30T00:38:56;96311.59;;;21.23
34310;BMP280;61664;48.112;11.662;2023-09-30T00:41:23;96329.81;;;21.28
34310;BMP280;61664;48.112;11.662;2023-09-30T00:43:50;96303.78;;;21.14
34310;BMP280;61664;48.112;11.662;2023-09-30T00:48:57;96313.44;;;21.33
34310;BMP280;61664;48.112;11.662;2023-09-30T00:51:26;96316.72;;;21.26
34310;BMP280;61664;48.112;11.662;2023-09-30T00:53:57;96329.59;;;21.26
34310;BMP280;61664;48.112;11.662;2023-09-30T00:56:28;96309.75;;;21.07
34310;BMP280;61664;48.112;11.662;2023-09-30T00:58:56;96315.41;;;21.09
34310;BMP280;61664;48.112;11.662;2023-09-30T01:01:23;96324.28;;;21.09
34310;BMP280;61664;48.112;11.662;2023-09-30T01:03:51;96309.31;;;21.02
34310;BMP280;61664;48.112;11.662;2023-09-30T01:06:19;96317.25;;;21.00
34310;BMP280;61664;48.112;11.662;2023-09-30T01:08:46;96314.53;;;21.00
34310;BMP280;61664;48.112;11.662;2023-09-30T01:11:14;96327.09;;;21.03
34310;BMP280;61664;48.112;11.662;2023-09-30T01:13:42;96313.59;;;20.92
34310;BMP280;61664;48.112;11.662;2023-09-30T01:16:11;96326.41;;;20.97
34310;BMP280;61664;48.112;11.662;2023-09-30T01:18:40;96328.34;;;21.02
34310;BMP280;61664;48.112;11.662;2023-09-30T01:21:10;96324.41;;;20.98
34310;BMP280;61664;48.112;11.662;2023-09-30T01:23:38;96327.31;;;21.05
34310;BMP280;61664;48.112;11.662;2023-09-30T01:26:12;96328.22;;;21.14
34310;BMP280;61664;48.112;11.662;2023-09-30T01:28:40;96319.88;;;21.12
34310;BMP280;61664;48.112;11.662;2023-09-30T01:31:07;96329.69;;;21.15
34310;BMP280;61664;48.112;11.662;2023-09-30T01:33:35;96319.88;;;21.12
34310;BMP280;61664;48.112;11.662;2023-09-30T01:36:02;96317.78;;;21.18
34310;BMP280;61664;48.112;11.662;2023-09-30T01:38:29;96310.69;;;21.15
34310;BMP280;61664;48.112;11.662;2023-09-30T01:40:56;96310.72;;;21.09
34310;BMP280;61664;48.112;11.662;2023-09-30T01:43:27;96322.00;;;21.19
34310;BMP280;61664;48.112;11.662;2023-09-30T01:45:54;96320.81;;;21.14
34310;BMP280;61664;48.112;11.662;2023-09-30T01:48:21;96314.44;;;21.12
34310;BMP280;61664;48.112;11.662;2023-09-30T01:50:49;96325.50;;;21.14
34310;BMP280;61664;48.112;11.662;2023-09-30T01:53:15;96341.25;;;21.21
34310;BMP280;61664;48.112;11.662;2023-09-30T01:55:42;96329.69;;;21.15
34310;BMP280;61664;48.112;11.662;2023-09-30T01:58:11;96326.84;;;21.26
34310;BMP280;61664;48.112;11.662;2023-09-30T02:00:38;96318.78;;;21.20
34310;BMP280;61664;48.112;11.662;2023-09-30T02:03:05;96330.06;;;21.30
34310;BMP280;61664;48.112;11.662;2023-09-30T02:05:32;96325.03;;;21.39
34310;BMP280;61664;48.112;11.662;2023-09-30T02:07:59;96334.13;;;21.42
34310;BMP280;61664;48.112;11.662;2023-09-30T02:10:26;96331.94;;;21.40
34310;BMP280;61664;48.112;11.662;2023-09-30T02:12:53;96322.56;;;21.36
34310;BMP280;61664;48.112;11.662;2023-09-30T02:15:20;96330.19;;;21.37
34310;BMP280;61664;48.112;11.662;2023-09-30T02:17:47;96334.44;;;21.33
34310;BMP280;61664;48.112;11.662;2023-09-30T02:20:16;96326.09;;;21.31
34310;BMP280;61664;48.112;11.662;2023-09-30T02:22:46;96332.75;;;21.30
34310;BMP280;61664;48.112;11.662;2023-09-30T02:25:14;96309.91;;;21.20
34310;BMP280;61664;48.112;11.662;2023-09-30T02:27:42;96330.09;;;21.24
34310;BMP280;61664;48.112;11.662;2023-09-30T02:30:10;96316.31;;;21.17
34310;BMP280;61664;48.112;11.662;2023-09-30T02:32:39;96328.94;;;21.20
34310;BMP280;61664;48.112;11.662;2023-09-30T02:35:10;96314.63;;;21.14
34310;BMP280;61664;48.112;11.662;2023-09-30T02:37:42;96330.31;;;21.26
34310;BMP280;61664;48.112;11.662;2023-09-30T02:40:09;96322.66;;;21.25
34310;BMP280;61664;48.112;11.662;2023-09-30T02:42:38;96333.97;;;21.29
34310;BMP280;61664;48.112;11.662;2023-09-30T02:45:08;96332.25;;;21.31
34310;BMP280;61664;48.112;11.662;2023-09-30T02:47:36;96319.69;;;21.28
34310;BMP280;61664;48.112;11.662;2023-09-30T02:50:08;96332.72;;;21.35
34310;BMP280;61664;48.112;11.662;2023-09-30T02:52:38;96315.53;;;21.22
34310;BMP280;61664;48.112;11.662;2023-09-30T02:55:11;96327.84;;;21.28
34310;BMP280;61664;48.112;11.662;2023-09-30T02:57:39;96332.31;;;21.26
34310;BMP280;61664;48.112;11.662;2023-09-30T03:00:08;96321.56;;;21.15
34310;BMP280;61664;48.112;11.662;2023-09-30T03:02:54;96314.19;;;21.10
34310;BMP280;61664;48.112;11.662;2023-09-30T03:05:22;96325.75;;;21.16
34310;BMP280;61664;48.112;11.662;2023-09-30T03:07:50;96322.34;;;21.10
34310;BMP280;61664;48.112;11.662;2023-09-30T03:10:17;96328.53;;;21.10
34310;BMP280;61664;48.112;11.662;2023-09-30T03:12:47;96331.47;;;21.12
34310;BMP280;61664;48.112;11.662;2023-09-30T03:15:15;96317.69;;;21.04
34310;BMP280;61664;48.112;11.662;2023-09-30T03:17:42;96315.78;;;20.99
34310;BMP280;61664;48.112;11.662;2023-09-30T03:20:11;96327.88;;;20.98
34310;BMP280;61664;48.112;11.662;2023-09-30T03:22:40;96333.06;;;20.96
34310;BMP280;61664;48.112;11.662;2023-09-30T03:25:09;96319.59;;;20.85
34310;BMP280;61664;48.112;11.662;2023-09-30T03:27:37;96319.88;;;20.82
34310;BMP280;61664;48.112;11.662;2023-09-30T03:30:05;96305.69;;;20.64
34310;BMP280;61664;48.112;11.662;2023-09-30T03:32:32;96325.88;;;20.75
34310;BMP280;61664;48.112;11.662;2023-09-30T03:35:10;96338.19;;;20.76
34310;BMP280;61664;48.112;11.662;2023-09-30T03:37:37;96333.13;;;20.61
34310;BMP280;61664;48.112;11.662;2023-09-30T03:40:05;96342.53;;;20.60
34310;BMP280;61664;48.112;11.662;2023-09-30T03:42:41;96340.84;;;20.51
34310;BMP280;61664;48.112;11.662;2023-09-30T03:45:11;96352.25;;;20.44
34310;BMP280;61664;48.112;11.662;2023-09-30T03:47:41;96354.97;;;20.39
34310;BMP280;61664;48.112;11.662;2023-09-30T03:50:09;96338.72;;;20.33
34310;BMP280;61664;48.112;11.662;2023-09-30T03:52:43;96336.75;;;20.34
34310;BMP280;61664;48.112;11.662;2023-09-30T03:55:12;96331.78;;;20.38
34310;BMP280;61664;48.112;11.662;2023-09-30T03:57:39;96347.00;;;20.52
34310;BMP280;61664;48.112;11.662;2023-09-30T04:02:38;96324.06;;;20.53
34310;BMP280;61664;48.112;11.662;2023-09-30T04:05:05;96346.91;;;20.63
34310;BMP280;61664;48.112;11.662;2023-09-30T04:07:32;96339.75;;;20.65
34310;BMP280;61664;48.112;11.662;2023-09-30T04:09:59;96330.91;;;20.59
34310;BMP280;61664;48.112;11.662;2023-09-30T04:12:28;96330.63;;;20.63
34310;BMP280;61664;48.112;11.662;2023-09-30T04:14:55;96331.16;;;20.61
34310;BMP280;61664;48.112;11.662;2023-09-30T04:17:22;96335.81;;;20.67
34310;BMP280;61664;48.112;11.662;2023-09-30T04:19:50;96327.91;;;20.63
34310;BMP280;61664;48.112;11.662;2023-09-30T04:22:19;96333.59;;;20.65
34310;BMP280;61664;48.112;11.662;2023-09-30T04:24:48;96334.31;;;20.65
34310;BMP280;61664;48.112;11.662;2023-09-30T04:27:20;96325.25;;;20.57
34310;BMP280;61664;48.112;11.662;2023-09-30T04:29:48;96333.16;;;20.55
34310;BMP280;61664;48.112;11.662;2023-09-30T04:32:16;96347.47;;;20.56
34310;BMP280;61664;48.112;11.662;2023-09-30T04:34:43;96339.13;;;20.48
34310;BMP280;61664;48.112;11.662;2023-09-30T04:37:13;96336.69;;;20.45
34310;BMP280;61664;48.112;11.662;2023-09-30T04:39:41;96332.50;;;20.38
34310;BMP280;61664;48.112;11.662;2023-09-30T04:42:08;96343.56;;;20.46
34310;BMP280;61664;48.112;11.662;2023-09-30T04:44:38;96344.38;;;20.41
34310;BMP280;61664;48.112;11.662;2023-09-30T04:47:05;96346.81;;;20.39
34310;BMP280;61664;48.112;11.662;2023-09-30T04:49:32;96348.13;;;20.32
34310;BMP280;61664;48.112;11.662;2023-09-30T04:51:59;96361.91;;;20.34
34310;BMP280;61664;48.112;11.662;2023-09-30T04:54:27;96360.75;;;20.24
34310;BMP280;61664;48.112;11.662;2023-09-30T04:56:56;96359.81;;;20.16
34310;BMP280;61664;48.112;11.662;2023-09-30T04:59:23;96377.31;;;20.15
34310;BMP280;61664;48.112;11.662;2023-09-30T05:01:51;96362.56;;;20.10
34310;BMP280;61664;48.112;11.662;2023-09-30T05:04:18;96374.16;;;20.05
34310;BMP280;61664;48.112;11.662;2023-09-30T05:06:46;96363.34;;;20.00
34310;BMP280;61664;48.112;11.662;2023-09-30T05:09:13;96370.47;;;19.97
34310;BMP280;61664;48.112;11.662;2023-09-30T05:11:39;96371.50;;;19.94
34310;BMP280;61664;48.112;11.662;2023-09-30T05:14:06;96367.53;;;19.95
34310;BMP280;61664;48.112;11.662;2023-09-30T05:16:33;96373.97;;;19.92
34310;BMP280;61664;48.112;11.662;2023-09-30T05:19:00;96368.53;;;19.86
34310;BMP280;61664;48.112;11.662;2023-09-30T05:21:27;96376.47;;;19.84
34310;BMP280;61664;48.112;11.662;2023-09-30T05:23:54;96369.84;;;19.80
34310;BMP280;61664;48.112;11.662;2023-09-30T05:26:23;96383.34;;;19.91
34310;BMP280;61664;48.112;11.662;2023-09-30T05:28:50;96390.25;;;19.92
34310;BMP280;61664;48.112;11.662;2023-09-30T05:31:17;96386.75;;;19.97
34310;BMP280;61664;48.112;11.662;2023-09-30T05:33:44;96386.75;;;20.03
34310;BMP280;61664;48.112;11.662;2023-09-30T05:36:11;96371.22;;;19.98
34310;BMP280;61664;48.112;11.662;2023-09-30T05:38:40;96371.22;;;20.03
34310;BMP280;61664;48.112;11.662;2023-09-30T05:41:07;96387.44;;;20.14
34310;BMP280;61664;48.112;11.662;2023-09-30T05:43:34;96380.31;;;20.11
34310;BMP280;61664;48.112;11.662;2023-09-30T05:46:01;96384.25;;;20.10
34310;BMP280;61664;48.112;11.662;2023-09-30T05:48:29;96391.88;;;20.12
34310;BMP280;61664;48.112;11.662;2023-09-30T05:50:57;96388.66;;;20.13
34310;BMP280;61664;48.112;11.662;2023-09-30T05:53:24;96392.38;;;20.16
34310;BMP280;61664;48.112;11.662;2023-09-30T05:55:51;96408.34;;;20.25
34310;BMP280;61664;48.112;11.662;2023-09-30T05:58:18;96407.38;;;20.22
34310;BMP280;61664;48.112;11.662;2023-09-30T06:00:45;96407.34;;;20.28
34310;BMP280;61664;48.112;11.662;2023-09-30T06:03:12;96405.63;;;20.31
34310;BMP280;61664;48.112;11.662;2023-09-30T06:05:41;96414.69;;;20.39
34310;BMP280;61664;48.112;11.662;2023-09-30T06:08:09;96413.94;;;20.38
34310;BMP280;61664;48.112;11.662;2023-09-30T06:10:43;96415.19;;;20.43
34310;BMP280;61664;48.112;11.662;2023-09-30T06:13:11;96415.19;;;20.43
34310;BMP280;61664;48.112;11.662;2023-09-30T06:15:42;96419.13;;;20.42
34310;BMP280;61664;48.112;11.662;2023-09-30T06:18:10;96404.84;;;20.36
34310;BMP280;61664;48.112;11.662;2023-09-30T06:20:41;96401.88;;;20.34
34310;BMP280;61664;48.112;11.662;2023-09-30T06:23:08;96411.50;;;20.40
34310;BMP280;61664;48.112;11.662;2023-09-30T06:25:37;96406.28;;;20.42
34310;BMP280;61664;48.112;11.662;2023-09-30T06:28:04;96410.97;;;20.42
34310;BMP280;61664;48.112;11.662;2023-09-30T06:30:31;96410.50;;;20.38
34310;BMP280;61664;48.112;11.662;2023-09-30T06:33:01;96421.13;;;20.41
34310;BMP280;61664;48.112;11.662;2023-09-30T06:35:32;96418.19;;;20.34
34310;BMP280;61664;48.112;11.662;2023-09-30T06:38:04;96441.84;;;20.39
34310;BMP280;61664;48.112;11.662;2023-09-30T06:40:33;96447.53;;;20.41
34310;BMP280;61664;48.112;11.662;2023-09-30T06:43:04;96457.38;;;20.44
34310;BMP280;61664;48.112;11.662;2023-09-30T06:45:32;96454.41;;;20.42
34310;BMP280;61664;48.112;11.662;2023-09-30T06:48:00;96441.88;;;20.33
34310;BMP280;61664;48.112;11.662;2023-09-30T06:50:27;96453.22;;;20.37
34310;BMP280;61664;48.112;11.662;2023-09-30T06:52:54;96440.34;;;20.38
34310;BMP280;61664;48.112;11.662;2023-09-30T06:55:21;96425.31;;;20.37
34310;BMP280;61664;48.112;11.662;2023-09-30T06:57:48;96439.13;;;20.39
34310;BMP280;61664;48.112;11.662;2023-09-30T07:00:15;96449.00;;;20.42
34310;BMP280;61664;48.112;11.662;2023-09-30T07:02:43;96458.09;;;20.50
34310;BMP280;61664;48.112;11.662;2023-09-30T07:05:15;96466.72;;;20.54
34310;BMP280;61664;48.112;11.662;2023-09-30T07:07:42;96461.00;;;20.57
34310;BMP280;61664;48.112;11.662;2023-09-30T07:10:11;96464.88;;;20.67
34310;BMP280;61664;48.112;11.662;2023-09-30T07:12:38;96463.19;;;20.70
34310;BMP280;61664;48.112;11.662;2023-09-30T07:15:07;96458.16;;;20.80
34310;BMP280;61664;48.112;11.662;2023-09-30T07:17:36;96464.06;;;20.84
34310;BMP280;61664;48.112;11.662;2023-09-30T07:20:05;96480.09;;;20.87
34310;BMP280;61664;48.112;11.662;2023-09-30T07:22:33;96486.97;;;20.88
34310;BMP280;61664;48.112;11.662;2023-09-30T07:25:12;96496.34;;;20.93
34310;BMP280;61664;48.112;11.662;2023-09-30T07:27:43;96482.28;;;20.94
34310;BMP280;61664;48.112;11.662;2023-09-30T07:30:13;96463.53;;;20.91
34310;BMP280;61664;48.112;11.662;2023-09-30T07:32:42;96488.94;;;20.93
34310;BMP280;61664;48.112;11.662;2023-09-30T07:35:10;96462.03;;;20.95
34310;BMP280;61664;48.112;11.662;2023-09-30T07:37:37;96466.91;;;21.02
34310;BMP280;61664;48.112;11.662;2023-09-30T07:40:05;96472.59;;;20.99
34310;BMP280;61664;48.112;11.662;2023-09-30T07:42:33;96503.44;;;21.07
34310;BMP280;61664;48.112;11.662;2023-09-30T07:45:01;96504.66;;;21.06
34310;BMP280;61664;48.112;11.662;2023-09-30T07:47:30;96486.66;;;21.03
34310;BMP280;61664;48.112;11.662;2023-09-30T07:50:00;96492.59;;;21.01
34310;BMP280;61664;48.112;11.662;2023-09-30T07:52:33;96497.06;;;20.99
34310;BMP280;61664;48.112;11.662;2023-09-30T07:54:59;96492.91;;;20.92
34310;BMP280;61664;48.112;11.662;2023-09-30T07:57:26;96490.97;;;20.87
34310;BMP280;61664;48.112;11.662;2023-09-30T07:59:53;96497.56;;;20.97
34310;BMP280;61664;48.112;11.662;2023-09-30T08:02:21;96511.78;;;21.15
34310;BMP280;61664;48.112;11.662;2023-09-30T08:04:49;96511.53;;;21.13
34310;BMP280;61664;48.112;11.662;2023-09-30T08:07:16;96515.88;;;21.27
34310;BMP280;61664;48.112;11.662;2023-09-30T08:09:43;96511.88;;;21.33
34310;BMP280;61664;48.112;11.662;2023-09-30T08:12:10;96514.53;;;21.44
34310;BMP280;61664;48.112;11.662;2023-09-30T08:14:37;96506.13;;;21.72
34310;BMP280;61664;48.112;11.662;2023-09-30T08:17:04;96512.28;;;22.21
34310;BMP280;61664;48.112;11.662;2023-09-30T08:19:31;96505.00;;;22.48
34310;BMP280;61664;48.112;11.662;2023-09-30T08:21:58;96505.91;;;22.75
34310;BMP280;61664;48.112;11.662;2023-09-30T08:24:29;96493.59;;;22.87
34310;BMP280;61664;48.112;11.662;2023-09-30T08:26:56;96505.66;;;23.11
34310;BMP280;61664;48.112;11.662;2023-09-30T08:29:23;96503.94;;;23.07
34310;BMP280;61664;48.112;11.662;2023-09-30T08:31:50;96491.38;;;22.86
34310;BMP280;61664;48.112;11.662;2023-09-30T08:34:18;96479.75;;;22.66
34310;BMP280;61664;48.112;11.662;2023-09-30T08:36:47;96486.97;;;22.83
34310;BMP280;61664;48.112;11.662;2023-09-30T08:39:14;96510.63;;;23.25
34310;BMP280;61664;48.112;11.662;2023-09-30T08:41:41;96509.88;;;23.96
34310;BMP280;61664;48.112;11.662;2023-09-30T08:44:10;96515.72;;;24.40
34310;BMP280;61664;48.112;11.662;2023-09-30T08:46:39;96532.69;;;24.46
34310;BMP280;61664;48.112;11.662;2023-09-30T08:49:06;96525.09;;;24.31
34310;BMP280;61664;48.112;11.662;2023-09-30T08:51:36;96521.19;;;24.13
34310;BMP280;61664;48.112;11.662;2023-09-30T08:54:03;96517.84;;;23.94
34310;BMP280;61664;48.112;11.662;2023-09-30T08:56:31;96525.19;;;23.86
34310;BMP280;61664;48.112;11.662;2023-09-30T08:59:03;96527.63;;;23.89
34310;BMP280;61664;48.112;11.662;2023-09-30T09:01:31;96526.44;;;23.85
34310;BMP280;61664;48.112;11.662;2023-09-30T09:03:58;96519.94;;;23.75
34310;BMP280;61664;48.112;11.662;2023-09-30T09:06:26;96501.22;;;23.53
34310;BMP280;61664;48.112;11.662;2023-09-30T09:08:53;96512.75;;;23.45
34310;BMP280;61664;48.112;11.662;2023-09-30T09:11:20;96513.63;;;23.54
34310;BMP280;61664;48.112;11.662;2023-09-30T09:13:51;96509.25;;;23.77
34310;BMP280;61664;48.112;11.662;2023-09-30T09:16:24;96505.47;;;24.19
34310;BMP280;61664;48.112;11.662;2023-09-30T09:18:51;96501.53;;;24.75
34310;BMP280;61664;48.112;11.662;2023-09-30T09:21:21;96507.06;;;25.45
34310;BMP280;61664;48.112;11.662;2023-09-30T09:23:54;96509.66;;;26.22
34310;BMP280;61664;48.112;11.662;2023-09-30T09:26:27;96506.38;;;26.98
34310;BMP280;61664;48.112;11.662;2023-09-30T09:28:59;96513.41;;;27.76
34310;BMP280;61664;48.112;11.662;2023-09-30T09:31:33;96510.69;;;28.24
34310;BMP280;61664;48.112;11.662;2023-09-30T09:34:14;96517.41;;;27.91
34310;BMP280;61664;48.112;11.662;2023-09-30T09:36:45;96510.94;;;27.33
34310;BMP280;61664;48.112;11.662;2023-09-30T09:39:13;96516.78;;;26.69
34310;BMP280;61664;48.112;11.662;2023-09-30T09:41:51;96534.44;;;26.09
34310;BMP280;61664;48.112;11.662;2023-09-30T09:44:23;96526.16;;;25.58
34310;BMP280;61664;48.112;11.662;2023-09-30T09:46:50;96508.97;;;25.08
34310;BMP280;61664;48.112;11.662;2023-09-30T09:49:20;96496.81;;;24.96
34310;BMP280;61664;48.112;11.662;2023-09-30T09:51:49;96493.69;;;24.92
34310;BMP280;61664;48.112;11.662;2023-09-30T09:54:17;96478.78;;;25.22
34310;BMP280;61664;48.112;11.662;2023-09-30T09:56:47;96483.59;;;25.85
34310;BMP280;61664;48.112;11.662;2023-09-30T09:59:16;96479.19;;;26.18
34310;BMP280;61664;48.112;11.662;2023-09-30T10:01:43;96468.88;;;26.85
34310;BMP280;61664;48.112;11.662;2023-09-30T10:04:12;96463.31;;;27.53
34310;BMP280;61664;48.112;11.662;2023-09-30T10:06:46;96466.00;;;28.23
34310;BMP280;61664;48.112;11.662;2023-09-30T10:09:19;96474.75;;;28.87
34310;BMP280;61664;48.112;11.662;2023-09-30T10:11:47;96465.25;;;29.22
34310;BMP280;61664;48.112;11.662;2023-09-30T10:14:32;96462.16;;;29.35
34310;BMP280;61664;48.112;11.662;2023-09-30T10:17:03;96490.53;;;29.28
34310;BMP280;61664;48.112;11.662;2023-09-30T10:19:30;96487.59;;;29.26
34310;BMP280;61664;48.112;11.662;2023-09-30T10:24:48;96473.31;;;29.20
34310;BMP280;61664;48.112;11.662;2023-09-30T10:40:57;96466.28;;;28.35
34310;BMP280;61664;48.112;11.662;2023-09-30T10:43:37;96466.69;;;27.99
34310;BMP280;61664;48.112;11.662;2023-09-30T10:48:54;96461.72;;;27.43
34310;BMP280;61664;48.112;11.662;2023-09-30T10:51:21;96466.69;;;27.21
34310;BMP280;61664;48.112;11.662;2023-09-30T10:53:55;96470.00;;;26.97
34310;BMP280;61664;48.112;11.662;2023-09-30T10:56:33;96481.50;;;26.88
34310;BMP280;61664;48.112;11.662;2023-09-30T10:59:01;96478.19;;;26.74
34310;BMP280;61664;48.112;11.662;2023-09-30T11:01:34;96478.75;;;26.58
34310;BMP280;61664;48.112;11.662;2023-09-30T11:04:03;96472.47;;;26.42
34310;BMP280;61664;48.112;11.662;2023-09-30T11:06:32;96477.25;;;26.49
34310;BMP280;61664;48.112;11.662;2023-09-30T11:09:01;96475.81;;;26.63
34310;BMP280;61664;48.112;11.662;2023-09-30T11:11:40;96459.94;;;26.77
34310;BMP280;61664;48.112;11.662;2023-09-30T11:16:53;96450.25;;;26.68
34310;BMP280;61664;48.112;11.662;2023-09-30T11:19:22;96449.31;;;26.58
34310;BMP280;61664;48.112;11.662;2023-09-30T11:21:53;96459.72;;;26.52
34310;BMP280;61664;48.112;11.662;2023-09-30T11:24:22;96451.69;;;26.54
34310;BMP280;61664;48.112;11.662;2023-09-30T11:26:53;96450.91;;;26.46
34310;BMP280;61664;48.112;11.662;2023-09-30T11:29:23;96456.03;;;26.34
34310;BMP280;61664;48.112;11.662;2023-09-30T11:31:51;96449.97;;;26.21
34310;BMP280;61664;48.112;11.662;2023-09-30T11:34:36;96447.97;;;26.21
34310;BMP280;61664;48.112;11.662;2023-09-30T11:37:07;96450.84;;;26.16
34310;BMP280;61664;48.112;11.662;2023-09-30T11:39:37;96463.81;;;26.08
34310;BMP280;61664;48.112;11.662;2023-09-30T11:42:15;96467.75;;;25.99
34310;BMP280;61664;48.112;11.662;2023-09-30T11:44:47;96460.28;;;25.99
34310;BMP280;61664;48.112;11.662;2023-09-30T11:47:15;96457.69;;;25.94
34310;BMP280;61664;48.112;11.662;2023-09-30T11:49:43;96462.81;;;25.90
34310;BMP280;61664;48.112;11.662;2023-09-30T11:52:16;96467.16;;;25.85
34310;BMP280;61664;48.112;11.662;2023-09-30T11:54:45;96456.75;;;25.84
34310;BMP280;61664;48.112;11.662;2023-09-30T11:57:16;96451.44;;;25.86
34310;BMP280;61664;48.112;11.662;2023-09-30T11:59:45;96441.78;;;25.85
34310;BMP280;61664;48.112;11.662;2023-09-30T12:02:14;96453.00;;;26.02
34310;BMP280;61664;48.112;11.662;2023-09-30T12:04:44;96460.00;;;26.18
34310;BMP280;61664;48.112;11.662;2023-09-30T12:07:12;96446.69;;;26.30
34310;BMP280;61664;48.112;11.662;2023-09-30T12:09:40;96444.53;;;26.43
34310;BMP280;61664;48.112;11.662;2023-09-30T12:12:08;96422.44;;;26.41
34310;BMP280;61664;48.112;11.662;2023-09-30T12:14:40;96412.91;;;26.42
34310;BMP280;61664;48.112;11.662;2023-09-30T12:17:07;96413.47;;;26.41
34310;BMP280;61664;48.112;11.662;2023-09-30T12:19:40;96399.72;;;26.26
34310;BMP280;61664;48.112;11.662;2023-09-30T12:22:09;96404.81;;;26.14
34310;BMP280;61664;48.112;11.662;2023-09-30T12:24:37;96396.06;;;26.08
34310;BMP280;61664;48.112;11.662;2023-09-30T12:27:04;96405.19;;;26.11
34310;BMP280;61664;48.112;11.662;2023-09-30T12:29:31;96412.16;;;26.19
34310;BMP280;61664;48.112;11.662;2023-09-30T12:31:59;96393.31;;;26.16
34310;BMP280;61664;48.112;11.662;2023-09-30T12:34:28;96403.41;;;26.21
34310;BMP280;61664;48.112;11.662;2023-09-30T12:36:55;96399.72;;;26.26
34310;BMP280;61664;48.112;11.662;2023-09-30T12:39:25;96399.56;;;26.24
34310;BMP280;61664;48.112;11.662;2023-09-30T12:41:54;96407.94;;;26.26
34310;BMP280;61664;48.112;11.662;2023-09-30T12:44:21;96397.56;;;26.32
34310;BMP280;61664;48.112;11.662;2023-09-30T12:46:50;96390.06;;;26.25
34310;BMP280;61664;48.112;11.662;2023-09-30T12:49:17;96394.63;;;26.30
34310;BMP280;61664;48.112;11.662;2023-09-30T12:51:45;96408.19;;;26.43
34310;BMP280;61664;48.112;11.662;2023-09-30T12:54:13;96403.81;;;26.48
34310;BMP280;61664;48.112;11.662;2023-09-30T12:56:41;96403.06;;;26.47
34310;BMP280;61664;48.112;11.662;2023-09-30T12:59:09;96407.06;;;26.46
34310;BMP280;61664;48.112;11.662;2023-09-30T13:01:36;96397.94;;;26.43
34310;BMP280;61664;48.112;11.662;2023-09-30T13:04:03;96415.50;;;26.48
34310;BMP280;61664;48.112;11.662;2023-09-30T13:06:35;96404.69;;;26.35
34310;BMP280;61664;48.112;11.662;2023-09-30T13:09:03;96422.03;;;26.30
34310;BMP280;61664;48.112;11.662;2023-09-30T13:11:33;96417.97;;;26.16
34310;BMP280;61664;48.112;11.662;2023-09-30T13:14:04;96401.09;;;25.96
34310;BMP280;61664;48.112;11.662;2023-09-30T13:16:31;96416.31;;;26.05
34310;BMP280;61664;48.112;11.662;2023-09-30T13:18:58;96402.25;;;26.01
34310;BMP280;61664;48.112;11.662;2023-09-30T13:21:25;96416.53;;;26.15
34310;BMP280;61664;48.112;11.662;2023-09-30T13:23:52;96405.00;;;26.16
34310;BMP280;61664;48.112;11.662;2023-09-30T13:26:19;96389.50;;;26.19
34310;BMP280;61664;48.112;11.662;2023-09-30T13:28:46;96378.22;;;26.30
34310;BMP280;61664;48.112;11.662;2023-09-30T13:31:13;96373.47;;;26.38
34310;BMP280;61664;48.112;11.662;2023-09-30T13:33:41;96378.41;;;26.47
34310;BMP280;61664;48.112;11.662;2023-09-30T13:36:08;96391.19;;;26.52
34310;BMP280;61664;48.112;11.662;2023-09-30T13:38:35;96381.31;;;26.57
34310;BMP280;61664;48.112;11.662;2023-09-30T13:41:03;96381.88;;;26.55
34310;BMP280;61664;48.112;11.662;2023-09-30T13:43:30;96373.09;;;26.49
34310;BMP280;61664;48.112;11.662;2023-09-30T13:45:57;96381.50;;;26.43
34310;BMP280;61664;48.112;11.662;2023-09-30T13:48:24;96382.59;;;26.48
34310;BMP280;61664;48.112;11.662;2023-09-30T13:50:51;96380.59;;;26.56
34310;BMP280;61664;48.112;11.662;2023-09-30T13:53:19;96372.19;;;26.54
34310;BMP280;61664;48.112;11.662;2023-09-30T13:55:45;96371.81;;;26.65
34310;BMP280;61664;48.112;11.662;2023-09-30T13:58:14;96355.91;;;26.56
34310;BMP280;61664;48.112;11.662;2023-09-30T14:00:47;96360.31;;;26.59
34310;BMP280;61664;48.112;11.662;2023-09-30T14:03:15;96353.38;;;26.58
34310;BMP280;61664;48.112;11.662;2023-09-30T14:05:42;96361.03;;;26.52
34310;BMP280;61664;48.112;11.662;2023-09-30T14:08:09;96362.88;;;26.50
34310;BMP280;61664;48.112;11.662;2023-09-30T14:10:37;96365.81;;;26.59
34310;BMP280;61664;48.112;11.662;2023-09-30T14:13:04;96368.00;;;26.61
34310;BMP280;61664;48.112;11.662;2023-09-30T14:15:31;96370.34;;;26.64
34310;BMP280;61664;48.112;11.662;2023-09-30T14:17:58;96374.00;;;26.74
34310;BMP280;61664;48.112;11.662;2023-09-30T14:20:25;96362.16;;;26.79
34310;BMP280;61664;48.112;11.662;2023-09-30T14:22:52;96370.00;;;26.83
34310;BMP280;61664;48.112;11.662;2023-09-30T14:25:21;96357.19;;;26.85
34310;BMP280;61664;48.112;11.662;2023-09-30T14:27:51;96371.09;;;26.87
34310;BMP280;61664;48.112;11.662;2023-09-30T14:30:18;96359.94;;;26.78
34310;BMP280;61664;48.112;11.662;2023-09-30T14:32:47;96363.59;;;26.73